sensor_id;sensor_type;location;lat;lon;timestamp;P1;durP1;ratioP1;P2;durP2;ratioP2
51491;SDS011;37569;50.548;8.778;2023-12-29T00:03:30;2.9;;;2.2;;
51491;SDS011;37569;50.548;8.778;2023-12-29T00:08:31;2.4;;;2.2;;
51491;SDS011;37569;50.548;8.778;2023-12-29T00:13:31;2;;;1.8;;
51491;SDS011;37569;50.548;8.778;2023-12-29T00:18:31;3.2;;;2;;
51491;SDS011;37569;50.548;8.778;2023-12-29T00:23:32;2.5;;;2.1;;
51491;SDS011;37569;50.548;8.778;2023-12-29T00:28:32;2.4;;;2.2;;
51491;SDS011;37569;50.548;8.778;2023-12-29T00:33:33;2.4;;;2.2;;
51491;SDS011;37569;50.548;8.778;2023-12-29T00:38:33;2.6;;;2.4;;
51491;SDS011;37569;50.548;8.778;2023-12-29T00:43:33;3;;;2.2;;
51491;SDS011;37569;50.548;8.778;2023-12-29T00:48:34;3.2;;;2.5;;
51491;SDS011;37569;50.548;8.778;2023-12-29T00:53:34;2.5;;;2.3;;
51491;SDS011;37569;50.548;8.778;2023-12-29T00:58:35;3.5;;;2.3;;
51491;SDS011;37569;50.548;8.778;2023-12-29T01:03:35;2.9;;;2.1;;
51491;SDS011;37569;50.548;8.778;2023-12-29T01:08:36;2.2;;;2;;
51491;SDS011;37569;50.548;8.778;2023-12-29T01:13:36;2.9;;;2.2;;
51491;SDS011;37569;50.548;8.778;2023-12-29T01:18:36;3;;;2.4;;
51491;SDS011;37569;50.548;8.778;2023-12-29T01:23:37;2.7;;;2.5;;
51491;SDS011;37569;50.548;8.778;2023-12-29T01:28:37;3.7;;;2.7;;
51491;SDS011;37569;50.548;8.778;2023-12-29T01:33:37;3.9;;;2.9;;
51491;SDS011;37569;50.548;8.778;2023-12-29T01:38:38;3.7;;;2.8;;
51491;SDS011;37569;50.548;8.778;2023-12-29T01:44:02;2.9;;;2.6;;
51491;SDS011;37569;50.548;8.778;2023-12-29T01:48:38;3.2;;;2.6;;
51491;SDS011;37569;50.548;8.778;2023-12-29T01:53:39;2.6;;;2.4;;
51491;SDS011;37569;50.548;8.778;2023-12-29T01:58:39;2.7;;;2.2;;
51491;SDS011;37569;50.548;8.778;2023-12-29T02:03:40;3;;;2.3;;
51491;SDS011;37569;50.548;8.778;2023-12-29T02:08:40;2.9;;;1.9;;
51491;SDS011;37569;50.548;8.778;2023-12-29T02:13:40;2.2;;;1.8;;
51491;SDS011;37569;50.548;8.778;2023-12-29T02:18:41;2.2;;;1.8;;
51491;SDS011;37569;50.548;8.778;2023-12-29T02:23:41;2.4;;;1.7;;
51491;SDS011;37569;50.548;8.778;2023-12-29T02:28:43;3.1;;;1.7;;
51491;SDS011;37569;50.548;8.778;2023-12-29T02:33:42;2.7;;;1.8;;
51491;SDS011;37569;50.548;8.778;2023-12-29T02:38:42;2.1;;;1.9;;
51491;SDS011;37569;50.548;8.778;2023-12-29T02:43:43;2.4;;;1.9;;
51491;SDS011;37569;50.548;8.778;2023-12-29T02:48:43;4.8;;;2;;
51491;SDS011;37569;50.548;8.778;2023-12-29T02:53:44;2.4;;;2.1;;
51491;SDS011;37569;50.548;8.778;2023-12-29T02:58:44;2.9;;;2;;
51491;SDS011;37569;50.548;8.778;2023-12-29T03:03:45;4.1;;;2;;
51491;SDS011;37569;50.548;8.778;2023-12-29T03:08:45;4.3;;;1.9;;
51491;SDS011;37569;50.548;8.778;2023-12-29T03:13:45;3.8;;;1.9;;
51491;SDS011;37569;50.548;8.778;2023-12-29T03:18:46;3.7;;;1.8;;
51491;SDS011;37569;50.548;8.778;2023-12-29T03:23:46;4.5;;;2;;
51491;SDS011;37569;50.548;8.778;2023-12-29T03:28:47;4.9;;;2.3;;
51491;SDS011;37569;50.548;8.778;2023-12-29T03:33:47;4.8;;;1.9;;
51491;SDS011;37569;50.548;8.778;2023-12-29T03:38:47;3.4;;;2.1;;
51491;SDS011;37569;50.548;8.778;2023-12-29T03:43:48;3.3;;;1.9;;
51491;SDS011;37569;50.548;8.778;2023-12-29T03:48:48;3.5;;;1.9;;
51491;SDS011;37569;50.548;8.778;2023-12-29T03:53:48;2.9;;;1.8;;
51491;SDS011;37569;50.548;8.778;2023-12-29T03:58:49;2.6;;;1.8;;
51491;SDS011;37569;50.548;8.778;2023-12-29T04:03:49;2.7;;;2;;
51491;SDS011;37569;50.548;8.778;2023-12-29T04:08:49;3.2;;;1.9;;
51491;SDS011;37569;50.548;8.778;2023-12-29T04:13:50;3.1;;;1.8;;
51491;SDS011;37569;50.548;8.778;2023-12-29T04:18:50;3.9;;;1.9;;
51491;SDS011;37569;50.548;8.778;2023-12-29T04:23:51;3.2;;;1.8;;
51491;SDS011;37569;50.548;8.778;2023-12-29T04:28:51;3.1;;;2.1;;
51491;SDS011;37569;50.548;8.778;2023-12-29T04:33:51;4.6;;;1.9;;
51491;SDS011;37569;50.548;8.778;2023-12-29T04:38:52;2.8;;;1.9;;
51491;SDS011;37569;50.548;8.778;2023-12-29T04:43:52;3.2;;;1.7;;
51491;SDS011;37569;50.548;8.778;2023-12-29T04:48:52;3.6;;;1.7;;
51491;SDS011;37569;50.548;8.778;2023-12-29T04:53:53;3.2;;;1.9;;
51491;SDS011;37569;50.548;8.778;2023-12-29T04:58:53;3.5;;;2;;
51491;SDS011;37569;50.548;8.778;2023-12-29T05:03:54;4.3;;;1.8;;
51491;SDS011;37569;50.548;8.778;2023-12-29T05:08:54;3.4;;;2.2;;
51491;SDS011;37569;50.548;8.778;2023-12-29T05:13:54;3.8;;;1.7;;
51491;SDS011;37569;50.548;8.778;2023-12-29T05:18:55;3.3;;;2;;
51491;SDS011;37569;50.548;8.778;2023-12-29T05:23:55;3.4;;;1.8;;
51491;SDS011;37569;50.548;8.778;2023-12-29T05:28:56;4.8;;;1.8;;
51491;SDS011;37569;50.548;8.778;2023-12-29T05:33:56;4.4;;;1.9;;
51491;SDS011;37569;50.548;8.778;2023-12-29T05:38:56;3.7;;;1.9;;
51491;SDS011;37569;50.548;8.778;2023-12-29T05:43:57;2.3;;;1.9;;
51491;SDS011;37569;50.548;8.778;2023-12-29T05:48:57;4.9;;;1.7;;
51491;SDS011;37569;50.548;8.778;2023-12-29T05:53:58;4.9;;;1.7;;
51491;SDS011;37569;50.548;8.778;2023-12-29T05:58:58;2.9;;;1.5;;
51491;SDS011;37569;50.548;8.778;2023-12-29T06:03:58;3.9;;;1.7;;
51491;SDS011;37569;50.548;8.778;2023-12-29T06:08:59;5.4;;;1.9;;
51491;SDS011;37569;50.548;8.778;2023-12-29T06:13:59;4.3;;;1.8;;
51491;SDS011;37569;50.548;8.778;2023-12-29T06:19:00;5.1;;;1.7;;
51491;SDS011;37569;50.548;8.778;2023-12-29T06:24:00;3.6;;;1.7;;
51491;SDS011;37569;50.548;8.778;2023-12-29T06:29:00;3.8;;;1.7;;
51491;SDS011;37569;50.548;8.778;2023-12-29T06:34:01;4.9;;;1.7;;
51491;SDS011;37569;50.548;8.778;2023-12-29T06:39:01;6.4;;;2;;
51491;SDS011;37569;50.548;8.778;2023-12-29T06:44:02;3.3;;;1.8;;
51491;SDS011;37569;50.548;8.778;2023-12-29T06:49:02;4.1;;;1.7;;
51491;SDS011;37569;50.548;8.778;2023-12-29T06:54:03;3.9;;;1.6;;
51491;SDS011;37569;50.548;8.778;2023-12-29T06:59:03;4.1;;;1.7;;
51491;SDS011;37569;50.548;8.778;2023-12-29T07:04:03;4.1;;;1.6;;
51491;SDS011;37569;50.548;8.778;2023-12-29T07:09:04;2.9;;;1.6;;
51491;SDS011;37569;50.548;8.778;2023-12-29T07:14:04;3;;;1.6;;
51491;SDS011;37569;50.548;8.778;2023-12-29T07:19:05;2.7;;;1.7;;
51491;SDS011;37569;50.548;8.778;2023-12-29T07:24:05;4;;;1.5;;
51491;SDS011;37569;50.548;8.778;2023-12-29T07:29:05;4.4;;;2.3;;
51491;SDS011;37569;50.548;8.778;2023-12-29T07:34:06;3.8;;;1.7;;
51491;SDS011;37569;50.548;8.778;2023-12-29T07:39:06;5.7;;;1.7;;
51491;SDS011;37569;50.548;8.778;2023-12-29T07:44:07;4.4;;;1.8;;
51491;SDS011;37569;50.548;8.778;2023-12-29T07:49:07;3.9;;;1.8;;
51491;SDS011;37569;50.548;8.778;2023-12-29T07:54:08;3.3;;;1.9;;
51491;SDS011;37569;50.548;8.778;2023-12-29T07:59:08;3.1;;;1.7;;
51491;SDS011;37569;50.548;8.778;2023-12-29T08:04:08;3.6;;;1.9;;
51491;SDS011;37569;50.548;8.778;2023-12-29T08:09:09;3.2;;;2;;
51491;SDS011;37569;50.548;8.778;2023-12-29T08:14:09;5.6;;;1.9;;
51491;SDS011;37569;50.548;8.778;2023-12-29T08:19:10;4.2;;;1.8;;
51491;SDS011;37569;50.548;8.778;2023-12-29T08:24:10;5.1;;;1.8;;
51491;SDS011;37569;50.548;8.778;2023-12-29T08:29:11;2.8;;;1.7;;
51491;SDS011;37569;50.548;8.778;2023-12-29T08:34:11;3.9;;;1.9;;
51491;SDS011;37569;50.548;8.778;2023-12-29T08:39:11;4;;;2;;
51491;SDS011;37569;50.548;8.778;2023-12-29T08:44:12;4.8;;;2;;
51491;SDS011;37569;50.548;8.778;2023-12-29T08:49:12;3.6;;;2;;
51491;SDS011;37569;50.548;8.778;2023-12-29T08:54:13;3.1;;;1.8;;
51491;SDS011;37569;50.548;8.778;2023-12-29T08:59:13;3.2;;;1.8;;
51491;SDS011;37569;50.548;8.778;2023-12-29T09:04:13;4.9;;;2.1;;
51491;SDS011;37569;50.548;8.778;2023-12-29T09:09:14;6.1;;;2.3;;
51491;SDS011;37569;50.548;8.778;2023-12-29T09:14:14;4;;;1.9;;
51491;SDS011;37569;50.548;8.778;2023-12-29T09:19:16;5.2;;;1.9;;
51491;SDS011;37569;50.548;8.778;2023-12-29T09:24:15;4.6;;;2;;
51491;SDS011;37569;50.548;8.778;2023-12-29T09:29:15;3.2;;;2.1;;
51491;SDS011;37569;50.548;8.778;2023-12-29T09:34:17;2.9;;;1.7;;
51491;SDS011;37569;50.548;8.778;2023-12-29T09:39:16;3.2;;;1.7;;
51491;SDS011;37569;50.548;8.778;2023-12-29T09:44:17;3;;;1.7;;
51491;SDS011;37569;50.548;8.778;2023-12-29T09:49:17;3.3;;;1.7;;
51491;SDS011;37569;50.548;8.778;2023-12-29T09:54:18;2.7;;;1.6;;
51491;SDS011;37569;50.548;8.778;2023-12-29T09:59:18;3.5;;;1.6;;
51491;SDS011;37569;50.548;8.778;2023-12-29T10:04:18;4.7;;;1.9;;
51491;SDS011;37569;50.548;8.778;2023-12-29T10:09:19;2.7;;;1.6;;
51491;SDS011;37569;50.548;8.778;2023-12-29T10:14:21;5.2;;;2;;
51491;SDS011;37569;50.548;8.778;2023-12-29T10:19:22;2.6;;;1.6;;
51491;SDS011;37569;50.548;8.778;2023-12-29T10:24:21;2.6;;;1.7;;
51491;SDS011;37569;50.548;8.778;2023-12-29T10:29:21;2.5;;;1.5;;
51491;SDS011;37569;50.548;8.778;2023-12-29T10:34:22;2.5;;;1.4;;
51491;SDS011;37569;50.548;8.778;2023-12-29T10:39:22;2.7;;;1.5;;
51491;SDS011;37569;50.548;8.778;2023-12-29T10:44:23;2.2;;;1.5;;
51491;SDS011;37569;50.548;8.778;2023-12-29T10:49:23;3.6;;;1.3;;
51491;SDS011;37569;50.548;8.778;2023-12-29T10:54:23;3;;;1.4;;
51491;SDS011;37569;50.548;8.778;2023-12-29T10:59:24;3.9;;;1.4;;
51491;SDS011;37569;50.548;8.778;2023-12-29T11:04:24;2.5;;;1.5;;
51491;SDS011;37569;50.548;8.778;2023-12-29T11:09:28;3.1;;;1.6;;
51491;SDS011;37569;50.548;8.778;2023-12-29T11:14:25;4;;;1.4;;
51491;SDS011;37569;50.548;8.778;2023-12-29T11:19:26;3.6;;;1.5;;
51491;SDS011;37569;50.548;8.778;2023-12-29T11:24:26;2.9;;;1.5;;
51491;SDS011;37569;50.548;8.778;2023-12-29T11:29:27;2.6;;;1.3;;
51491;SDS011;37569;50.548;8.778;2023-12-29T11:34:30;2;;;1.3;;
51491;SDS011;37569;50.548;8.778;2023-12-29T11:39:30;2.7;;;1.4;;
51491;SDS011;37569;50.548;8.778;2023-12-29T11:44:28;2.8;;;1.3;;
51491;SDS011;37569;50.548;8.778;2023-12-29T11:49:31;2.6;;;1.2;;
51491;SDS011;37569;50.548;8.778;2023-12-29T11:54:29;1.7;;;1.1;;
51491;SDS011;37569;50.548;8.778;2023-12-29T11:59:30;0.8;;;0.8;;
51491;SDS011;37569;50.548;8.778;2023-12-29T12:04:34;1.7;;;0.9;;
51491;SDS011;37569;50.548;8.778;2023-12-29T12:09:31;2.6;;;1.1;;
51491;SDS011;37569;50.548;8.778;2023-12-29T12:14:48;1;;;0.8;;
51491;SDS011;37569;50.548;8.778;2023-12-29T12:19:32;1.1;;;0.8;;
51491;SDS011;37569;50.548;8.778;2023-12-29T12:24:32;1.3;;;0.9;;
51491;SDS011;37569;50.548;8.778;2023-12-29T12:29:33;1.9;;;0.8;;
51491;SDS011;37569;50.548;8.778;2023-12-29T12:34:36;1.2;;;0.7;;
51491;SDS011;37569;50.548;8.778;2023-12-29T12:39:41;1.3;;;0.8;;
51491;SDS011;37569;50.548;8.778;2023-12-29T12:44:35;1.6;;;0.9;;
51491;SDS011;37569;50.548;8.778;2023-12-29T12:49:35;1.6;;;0.7;;
51491;SDS011;37569;50.548;8.778;2023-12-29T12:54:36;1.1;;;0.8;;
51491;SDS011;37569;50.548;8.778;2023-12-29T12:59:36;1.8;;;0.8;;
51491;SDS011;37569;50.548;8.778;2023-12-29T13:04:38;1.3;;;0.7;;
51491;SDS011;37569;50.548;8.778;2023-12-29T13:09:37;0.7;;;0.7;;
51491;SDS011;37569;50.548;8.778;2023-12-29T13:14:38;1.1;;;0.7;;
51491;SDS011;37569;50.548;8.778;2023-12-29T13:19:39;1;;;0.8;;
51491;SDS011;37569;50.548;8.778;2023-12-29T13:24:42;1.4;;;0.7;;
51491;SDS011;37569;50.548;8.778;2023-12-29T13:29:39;1.4;;;0.8;;
51491;SDS011;37569;50.548;8.778;2023-12-29T13:34:43;0.9;;;0.7;;
51491;SDS011;37569;50.548;8.778;2023-12-29T13:39:41;1.5;;;0.8;;
51491;SDS011;37569;50.548;8.778;2023-12-29T13:44:41;1.7;;;0.8;;
51491;SDS011;37569;50.548;8.778;2023-12-29T13:49:42;1.7;;;0.9;;
51491;SDS011;37569;50.548;8.778;2023-12-29T13:54:42;2;;;1.3;;
51491;SDS011;37569;50.548;8.778;2023-12-29T13:59:43;1.2;;;0.8;;
51491;SDS011;37569;50.548;8.778;2023-12-29T14:04:43;0.9;;;0.7;;
51491;SDS011;37569;50.548;8.778;2023-12-29T14:09:44;1.1;;;0.7;;
51491;SDS011;37569;50.548;8.778;2023-12-29T14:14:44;1.2;;;0.8;;
51491;SDS011;37569;50.548;8.778;2023-12-29T14:19:45;0.8;;;0.8;;
51491;SDS011;37569;50.548;8.778;2023-12-29T14:24:51;1.2;;;0.8;;
51491;SDS011;37569;50.548;8.778;2023-12-29T14:29:46;1.1;;;0.7;;
51491;SDS011;37569;50.548;8.778;2023-12-29T14:34:47;1.3;;;0.7;;
51491;SDS011;37569;50.548;8.778;2023-12-29T14:39:48;1;;;0.7;;
51491;SDS011;37569;50.548;8.778;2023-12-29T14:44:48;1.3;;;0.9;;
51491;SDS011;37569;50.548;8.778;2023-12-29T14:49:48;1.1;;;0.7;;
51491;SDS011;37569;50.548;8.778;2023-12-29T14:54:49;1.3;;;0.8;;
51491;SDS011;37569;50.548;8.778;2023-12-29T14:59:49;1.4;;;0.9;;
51491;SDS011;37569;50.548;8.778;2023-12-29T15:04:50;2.1;;;0.9;;
51491;SDS011;37569;50.548;8.778;2023-12-29T15:09:50;1.8;;;0.9;;
51491;SDS011;37569;50.548;8.778;2023-12-29T15:14:51;1.3;;;0.9;;
51491;SDS011;37569;50.548;8.778;2023-12-29T15:19:51;1;;;0.9;;
51491;SDS011;37569;50.548;8.778;2023-12-29T15:24:52;1.7;;;0.9;;
51491;SDS011;37569;50.548;8.778;2023-12-29T15:29:52;1.2;;;0.8;;
51491;SDS011;37569;50.548;8.778;2023-12-29T15:34:53;1;;;0.8;;
51491;SDS011;37569;50.548;8.778;2023-12-29T15:39:53;1.3;;;0.9;;
51491;SDS011;37569;50.548;8.778;2023-12-29T15:44:54;1.6;;;1;;
51491;SDS011;37569;50.548;8.778;2023-12-29T15:49:54;1.3;;;0.9;;
51491;SDS011;37569;50.548;8.778;2023-12-29T15:54:55;2.2;;;0.9;;
51491;SDS011;37569;50.548;8.778;2023-12-29T15:59:55;2;;;1.1;;
51491;SDS011;37569;50.548;8.778;2023-12-29T16:04:56;2.9;;;1.1;;
51491;SDS011;37569;50.548;8.778;2023-12-29T16:09:56;1.3;;;0.9;;
51491;SDS011;37569;50.548;8.778;2023-12-29T16:14:57;1.4;;;1.1;;
51491;SDS011;37569;50.548;8.778;2023-12-29T16:19:57;1.1;;;0.9;;
51491;SDS011;37569;50.548;8.778;2023-12-29T16:24:58;2;;;0.8;;
51491;SDS011;37569;50.548;8.778;2023-12-29T16:29:58;1.9;;;1;;
51491;SDS011;37569;50.548;8.778;2023-12-29T16:34:59;2.3;;;1.1;;
51491;SDS011;37569;50.548;8.778;2023-12-29T16:39:59;2.7;;;1.3;;
51491;SDS011;37569;50.548;8.778;2023-12-29T16:45:00;2.4;;;1;;
51491;SDS011;37569;50.548;8.778;2023-12-29T16:50:00;2.5;;;1.1;;
51491;SDS011;37569;50.548;8.778;2023-12-29T16:55:01;1.3;;;1.2;;
51491;SDS011;37569;50.548;8.778;2023-12-29T17:00:01;2.7;;;1.2;;
51491;SDS011;37569;50.548;8.778;2023-12-29T17:05:02;1.1;;;0.8;;
51491;SDS011;37569;50.548;8.778;2023-12-29T17:10:02;1.4;;;1.1;;
51491;SDS011;37569;50.548;8.778;2023-12-29T17:15:03;1.2;;;0.9;;
51491;SDS011;37569;50.548;8.778;2023-12-29T17:20:04;1.5;;;1.1;;
51491;SDS011;37569;50.548;8.778;2023-12-29T17:25:04;1.5;;;1.2;;
51491;SDS011;37569;50.548;8.778;2023-12-29T17:30:05;2.4;;;1.3;;
51491;SDS011;37569;50.548;8.778;2023-12-29T17:35:05;1.4;;;1;;
51491;SDS011;37569;50.548;8.778;2023-12-29T17:40:06;1.6;;;1.1;;
51491;SDS011;37569;50.548;8.778;2023-12-29T17:45:06;1.7;;;1.1;;
51491;SDS011;37569;50.548;8.778;2023-12-29T17:50:07;1.5;;;1;;
51491;SDS011;37569;50.548;8.778;2023-12-29T17:55:07;2.6;;;1.1;;
51491;SDS011;37569;50.548;8.778;2023-12-29T18:00:08;1.6;;;1;;
51491;SDS011;37569;50.548;8.778;2023-12-29T18:05:08;1.9;;;1.2;;
51491;SDS011;37569;50.548;8.778;2023-12-29T18:10:08;1.3;;;1.2;;
51491;SDS011;37569;50.548;8.778;2023-12-29T18:15:09;1.7;;;1.1;;
51491;SDS011;37569;50.548;8.778;2023-12-29T18:20:09;2.6;;;1.2;;
51491;SDS011;37569;50.548;8.778;2023-12-29T18:25:10;1.7;;;1.1;;
51491;SDS011;37569;50.548;8.778;2023-12-29T18:30:11;2;;;1.1;;
51491;SDS011;37569;50.548;8.778;2023-12-29T18:35:11;1.6;;;1.2;;
51491;SDS011;37569;50.548;8.778;2023-12-29T18:40:11;1.8;;;1.1;;
51491;SDS011;37569;50.548;8.778;2023-12-29T18:45:12;2.8;;;1.3;;
51491;SDS011;37569;50.548;8.778;2023-12-29T18:50:12;1.5;;;1;;
51491;SDS011;37569;50.548;8.778;2023-12-29T18:55:13;1.9;;;1.4;;
51491;SDS011;37569;50.548;8.778;2023-12-29T19:00:13;2.6;;;1.4;;
51491;SDS011;37569;50.548;8.778;2023-12-29T19:05:14;2;;;1.3;;
51491;SDS011;37569;50.548;8.778;2023-12-29T19:10:14;2.1;;;1.3;;
51491;SDS011;37569;50.548;8.778;2023-12-29T19:15:15;2.3;;;1.2;;
51491;SDS011;37569;50.548;8.778;2023-12-29T19:20:15;3.2;;;1.3;;
51491;SDS011;37569;50.548;8.778;2023-12-29T19:25:16;4.7;;;1.6;;
51491;SDS011;37569;50.548;8.778;2023-12-29T19:30:16;3;;;1.8;;
51491;SDS011;37569;50.548;8.778;2023-12-29T19:35:17;3.3;;;1.5;;
51491;SDS011;37569;50.548;8.778;2023-12-29T19:40:17;2.8;;;1.4;;
51491;SDS011;37569;50.548;8.778;2023-12-29T19:45:18;3.4;;;1.6;;
51491;SDS011;37569;50.548;8.778;2023-12-29T19:50:18;2.4;;;1.6;;
51491;SDS011;37569;50.548;8.778;2023-12-29T19:55:19;2.2;;;1.6;;
51491;SDS011;37569;50.548;8.778;2023-12-29T20:00:19;3.2;;;1.9;;
51491;SDS011;37569;50.548;8.778;2023-12-29T20:05:19;2.2;;;1.5;;
51491;SDS011;37569;50.548;8.778;2023-12-29T20:10:20;1.9;;;1.4;;
51491;SDS011;37569;50.548;8.778;2023-12-29T20:15:20;3.3;;;1.4;;
51491;SDS011;37569;50.548;8.778;2023-12-29T20:20:21;4;;;1.7;;
51491;SDS011;37569;50.548;8.778;2023-12-29T20:25:21;2.6;;;1.6;;
51491;SDS011;37569;50.548;8.778;2023-12-29T20:30:22;2;;;1.4;;
51491;SDS011;37569;50.548;8.778;2023-12-29T20:35:22;3.3;;;1.1;;
51491;SDS011;37569;50.548;8.778;2023-12-29T20:40:23;3;;;1.2;;
51491;SDS011;37569;50.548;8.778;2023-12-29T20:45:23;2.4;;;2.2;;
51491;SDS011;37569;50.548;8.778;2023-12-29T20:50:24;2.8;;;1.6;;
51491;SDS011;37569;50.548;8.778;2023-12-29T20:55:24;3.6;;;2.3;;
51491;SDS011;37569;50.548;8.778;2023-12-29T21:00:25;3.5;;;2;;
51491;SDS011;37569;50.548;8.778;2023-12-29T21:05:25;2.5;;;1.8;;
51491;SDS011;37569;50.548;8.778;2023-12-29T21:10:26;3;;;1.5;;
51491;SDS011;37569;50.548;8.778;2023-12-29T21:15:26;4.7;;;2.2;;
51491;SDS011;37569;50.548;8.778;2023-12-29T21:20:27;2.5;;;2;;
51491;SDS011;37569;50.548;8.778;2023-12-29T21:25:27;2.8;;;2;;
51491;SDS011;37569;50.548;8.778;2023-12-29T21:30:28;4.9;;;1.9;;
51491;SDS011;37569;50.548;8.778;2023-12-29T21:35:28;2.5;;;1.8;;
51491;SDS011;37569;50.548;8.778;2023-12-29T21:40:29;3.8;;;2;;
51491;SDS011;37569;50.548;8.778;2023-12-29T21:45:29;5.5;;;2.1;;
51491;SDS011;37569;50.548;8.778;2023-12-29T21:50:29;2.1;;;1.6;;
51491;SDS011;37569;50.548;8.778;2023-12-29T21:55:30;2.6;;;1.1;;
51491;SDS011;37569;50.548;8.778;2023-12-29T22:00:31;1.8;;;1;;
51491;SDS011;37569;50.548;8.778;2023-12-29T22:05:31;1.8;;;1;;
51491;SDS011;37569;50.548;8.778;2023-12-29T22:10:31;1.3;;;0.9;;
51491;SDS011;37569;50.548;8.778;2023-12-29T22:15:32;1.2;;;0.9;;
51491;SDS011;37569;50.548;8.778;2023-12-29T22:20:32;1.3;;;0.7;;
51491;SDS011;37569;50.548;8.778;2023-12-29T22:25:33;1.1;;;0.8;;
51491;SDS011;37569;50.548;8.778;2023-12-29T22:30:33;0.8;;;0.8;;
51491;SDS011;37569;50.548;8.778;2023-12-29T22:35:34;0.9;;;0.8;;
51491;SDS011;37569;50.548;8.778;2023-12-29T22:40:34;1.2;;;0.8;;
51491;SDS011;37569;50.548;8.778;2023-12-29T22:45:35;1.2;;;0.8;;
51491;SDS011;37569;50.548;8.778;2023-12-29T22:50:35;1.4;;;1;;
51491;SDS011;37569;50.548;8.778;2023-12-29T22:55:36;1.7;;;1;;
51491;SDS011;37569;50.548;8.778;2023-12-29T23:00:36;3;;;1.3;;
51491;SDS011;37569;50.548;8.778;2023-12-29T23:05:37;2.8;;;1.1;;
51491;SDS011;37569;50.548;8.778;2023-12-29T23:10:37;3;;;1.1;;
51491;SDS011;37569;50.548;8.778;2023-12-29T23:15:38;1.5;;;1.1;;
51491;SDS011;37569;50.548;8.778;2023-12-29T23:20:38;3.4;;;1.4;;
51491;SDS011;37569;50.548;8.778;2023-12-29T23:25:38;1.5;;;1.3;;
51491;SDS011;37569;50.548;8.778;2023-12-29T23:30:39;4;;;1.4;;
51491;SDS011;37569;50.548;8.778;2023-12-29T23:35:39;2.4;;;1.3;;
51491;SDS011;37569;50.548;8.778;2023-12-29T23:40:40;2.6;;;1.2;;
51491;SDS011;37569;50.548;8.778;2023-12-29T23:45:40;3;;;1.4;;
51491;SDS011;37569;50.548;8.778;2023-12-29T23:50:41;2.4;;;1.3;;
51491;SDS011;37569;50.548;8.778;2023-12-29T23:55:41;2.2;;;1.2;;
